createdAt,value
2019-06-10T00:01:08.717Z,3.10
2019-06-10T00:03:35.044Z,3.10
2019-06-10T00:06:03.719Z,3.20
2019-06-10T00:08:30.809Z,3.37
2019-06-10T00:10:58.219Z,3.30
2019-06-10T00:13:24.459Z,3.67
2019-06-10T00:15:51.515Z,3.40
2019-06-10T00:18:35.426Z,3.60
2019-06-10T00:20:46.262Z,3.57
2019-06-10T00:23:12.690Z,4.00
2019-06-10T00:25:41.445Z,3.80
2019-06-10T00:28:07.412Z,3.67
2019-06-10T00:30:34.869Z,3.70
2019-06-10T00:33:03.148Z,3.77
2019-06-10T00:35:31.425Z,3.77
2019-06-10T00:37:57.209Z,3.67
2019-06-10T00:40:23.366Z,3.83
2019-06-10T00:42:50.759Z,3.10
2019-06-10T00:45:18.119Z,4.10
2019-06-10T00:47:44.586Z,3.60
2019-06-10T00:50:14.805Z,3.70
2019-06-10T00:52:44.452Z,3.67
2019-06-10T00:55:12.054Z,4.10
2019-06-10T00:57:37.266Z,3.17
2019-06-10T01:00:14.524Z,4.20
2019-06-10T01:02:34.016Z,3.50
2019-06-10T01:05:00.794Z,3.77
2019-06-10T01:07:27.304Z,3.30
2019-06-10T01:09:53.447Z,3.17
2019-06-10T01:12:21.134Z,3.80
2019-06-10T01:14:47.624Z,3.50
2019-06-10T01:17:15.397Z,3.93
2019-06-10T01:19:41.902Z,3.07
2019-06-10T01:22:10.667Z,3.43
2019-06-10T01:24:36.146Z,3.70
2019-06-10T01:27:02.329Z,3.80
2019-06-10T01:29:28.503Z,3.83
2019-06-10T01:31:54.677Z,3.80
2019-06-10T01:34:21.760Z,3.80
2019-06-10T01:36:48.134Z,4.07
2019-06-10T01:39:15.152Z,4.20
2019-06-10T01:41:42.408Z,3.87
2019-06-10T01:44:11.099Z,4.67
2019-06-10T01:46:36.648Z,4.27
2019-06-10T01:49:02.829Z,5.27
2019-06-10T01:51:31.540Z,4.47
2019-06-10T01:53:57.058Z,4.30
2019-06-10T01:56:23.247Z,4.80
2019-06-10T01:58:51.316Z,5.47
2019-06-10T02:01:23.135Z,4.73
2019-06-10T02:03:47.494Z,4.53
2019-06-10T02:06:16.533Z,5.30
2019-06-10T02:08:41.918Z,4.83
2019-06-10T02:11:09.127Z,4.57
2019-06-10T02:13:36.185Z,5.17
2019-06-10T02:16:03.085Z,4.87
2019-06-10T02:18:31.946Z,4.87
2019-06-10T02:20:57.895Z,4.70
2019-06-10T02:23:24.539Z,5.30
2019-06-10T02:25:51.308Z,5.10
2019-06-10T02:28:17.615Z,5.40
2019-06-10T02:30:50.892Z,4.53
2019-06-10T02:33:16.765Z,5.33
2019-06-10T02:35:48.413Z,5.33
2019-06-10T02:38:08.112Z,5.20
2019-06-10T02:40:36.609Z,5.87
2019-06-10T02:43:04.709Z,5.70
2019-06-10T02:45:36.492Z,5.40
2019-06-10T02:47:58.971Z,5.90
2019-06-10T02:50:33.546Z,5.60
2019-06-10T02:52:59.537Z,6.03
2019-06-10T02:55:30.648Z,5.63
2019-06-10T02:57:53.800Z,5.47
2019-06-10T03:00:31.748Z,5.63
2019-06-10T03:02:48.054Z,5.33
2019-06-10T03:05:16.909Z,4.83
2019-06-10T03:07:44.432Z,4.73
2019-06-10T03:10:13.488Z,4.23
2019-06-10T03:12:38.554Z,4.30
2019-06-10T03:15:05.325Z,4.27
2019-06-10T03:17:32.256Z,4.47
2019-06-10T03:19:58.688Z,4.77
2019-06-10T03:22:25.897Z,5.87
2019-06-10T03:24:52.452Z,5.50
2019-06-10T03:27:18.807Z,5.10
2019-06-10T03:29:44.981Z,5.23
2019-06-10T03:32:14.521Z,5.47
2019-06-10T03:34:45.970Z,4.93
2019-06-10T03:37:07.303Z,5.33
2019-06-10T03:39:33.487Z,5.00
2019-06-10T03:42:02.126Z,5.00
2019-06-10T03:44:28.451Z,5.27
2019-06-10T03:46:54.822Z,5.20
2019-06-10T03:49:21.883Z,4.73
2019-06-10T03:51:49.059Z,4.83
2019-06-10T03:54:15.261Z,4.47
2019-06-10T03:56:42.983Z,4.13
2019-06-10T03:59:12.060Z,4.60
2019-06-10T04:01:37.739Z,4.47
2019-06-10T04:04:03.938Z,5.33
2019-06-10T04:06:33.358Z,5.07
2019-06-10T04:08:58.282Z,4.57
2019-06-10T04:11:25.913Z,4.73
2019-06-10T04:13:53.479Z,4.70
2019-06-10T04:16:22.276Z,4.53
2019-06-10T04:18:48.041Z,4.27
2019-06-10T04:21:14.217Z,4.20
2019-06-10T04:23:42.352Z,3.50
2019-06-10T04:26:08.491Z,3.40
2019-06-10T04:28:34.657Z,3.87
2019-06-10T04:31:02.696Z,4.07
2019-06-10T04:33:28.899Z,4.00
2019-06-10T04:35:55.071Z,3.33
2019-06-10T04:38:23.365Z,3.90
2019-06-10T04:40:49.326Z,3.50
2019-06-10T04:43:15.499Z,3.73
2019-06-10T04:45:42.930Z,3.33
2019-06-10T04:48:09.368Z,3.23
2019-06-10T04:50:42.511Z,2.90
2019-06-10T04:53:03.681Z,3.10
2019-06-10T04:55:29.828Z,3.63
2019-06-10T04:57:56.112Z,3.37
2019-06-10T05:00:24.078Z,3.60
2019-06-10T05:02:52.218Z,4.10
2019-06-10T05:05:19.013Z,3.50
2019-06-10T05:07:45.350Z,3.87
2019-06-10T05:10:12.399Z,3.33
2019-06-10T05:12:38.752Z,3.00
2019-06-10T05:15:05.972Z,3.10
2019-06-10T05:17:34.343Z,2.97
2019-06-10T05:20:02.542Z,2.83
2019-06-10T05:22:28.531Z,3.20
2019-06-10T05:24:55.670Z,3.20
2019-06-10T05:27:22.791Z,3.13
2019-06-10T05:29:50.048Z,3.40
2019-06-10T05:32:16.221Z,2.77
2019-06-10T05:34:43.661Z,3.17
2019-06-10T05:37:12.021Z,3.40
2019-06-10T05:39:38.153Z,3.57
2019-06-10T05:42:04.306Z,3.37
2019-06-10T05:44:33.130Z,3.93
2019-06-10T05:46:58.895Z,3.60
2019-06-10T05:49:26.234Z,4.10
2019-06-10T05:51:53.174Z,3.77
2019-06-10T05:54:19.627Z,3.63
2019-06-10T05:56:45.802Z,3.70
2019-06-10T05:59:12.153Z,3.43
2019-06-10T06:01:38.721Z,2.93
2019-06-10T06:04:05.121Z,3.73
2019-06-10T06:06:33.506Z,4.10
2019-06-10T06:08:59.495Z,3.30
2019-06-10T06:11:25.651Z,3.83
2019-06-10T06:13:52.339Z,4.23
2019-06-10T06:16:18.674Z,4.03
2019-06-10T06:18:44.843Z,4.30
2019-06-10T06:21:22.662Z,4.53
2019-06-10T06:23:39.103Z,4.57
2019-06-10T06:26:05.310Z,3.90
2019-06-10T06:28:33.959Z,5.70
2019-06-10T06:30:59.606Z,3.63
2019-06-10T06:33:25.760Z,3.37
2019-06-10T06:35:52.498Z,4.40
2019-06-10T06:38:18.821Z,4.20
2019-06-10T06:40:44.981Z,4.17
2019-06-10T06:43:12.082Z,3.90
2019-06-10T06:45:38.957Z,3.83
2019-06-10T06:48:05.441Z,3.20
2019-06-10T06:50:34.363Z,3.60
2019-06-10T06:53:25.817Z,3.97
2019-06-10T06:55:28.643Z,3.93
2019-06-10T06:57:55.088Z,4.17
2019-06-10T07:00:45.072Z,3.57
2019-06-10T07:02:53.073Z,3.60
2019-06-10T07:05:19.286Z,3.50
2019-06-10T07:07:46.260Z,3.57
2019-06-10T07:10:13.633Z,3.77
2019-06-10T07:12:43.952Z,3.50
2019-06-10T07:15:12.192Z,3.93
2019-06-10T07:17:39.527Z,3.73
2019-06-10T07:20:07.330Z,3.67
2019-06-10T07:22:36.207Z,4.77
2019-06-10T07:25:06.331Z,4.17
2019-06-10T07:27:30.313Z,4.23
2019-06-10T07:29:56.486Z,4.37
2019-06-10T07:32:22.886Z,4.43
2019-06-10T07:34:49.282Z,3.97
2019-06-10T07:37:15.437Z,4.33
2019-06-10T07:39:44.000Z,4.07
2019-06-10T07:42:09.820Z,4.13
2019-06-10T07:44:37.573Z,4.13
2019-06-10T07:47:04.051Z,4.43
2019-06-10T07:49:32.561Z,4.10
2019-06-10T07:52:12.030Z,4.23
2019-06-10T07:54:26.389Z,4.07
2019-06-10T07:56:53.742Z,3.67
2019-06-10T07:59:20.204Z,4.10
2019-06-10T08:01:51.398Z,4.20
2019-06-10T08:04:14.456Z,4.20
2019-06-10T08:06:44.136Z,4.17
2019-06-10T08:09:08.715Z,3.93
2019-06-10T08:11:35.188Z,4.80
2019-06-10T08:14:04.541Z,5.20
2019-06-10T08:16:29.539Z,5.03
2019-06-10T08:19:24.625Z,4.47
2019-06-10T08:21:23.851Z,4.60
2019-06-10T08:23:54.199Z,4.83
2019-06-10T08:26:22.677Z,5.27
2019-06-10T08:28:48.429Z,5.50
2019-06-10T08:31:14.567Z,5.17
2019-06-10T08:33:44.346Z,4.87
2019-06-10T08:36:08.829Z,4.87
2019-06-10T08:38:36.251Z,5.43
2019-06-10T08:41:03.313Z,5.10
2019-06-10T08:43:29.685Z,5.77
2019-06-10T08:45:56.168Z,5.30
2019-06-10T08:48:22.911Z,5.13
2019-06-10T08:50:50.206Z,5.50
2019-06-10T08:53:18.245Z,5.70
2019-06-10T08:55:46.633Z,6.03
2019-06-10T08:58:13.014Z,5.43
2019-06-10T09:00:40.442Z,6.17
2019-06-10T09:03:07.278Z,5.53
2019-06-10T09:05:33.455Z,5.47
2019-06-10T09:07:59.630Z,5.97
2019-06-10T09:10:25.827Z,5.10
2019-06-10T09:12:54.575Z,4.20
2019-06-10T09:15:20.252Z,4.80
2019-06-10T09:17:49.318Z,4.70
2019-06-10T09:20:15.552Z,4.67
2019-06-10T09:22:45.355Z,4.83
2019-06-10T09:25:12.380Z,4.60
2019-06-10T09:27:40.019Z,4.70
2019-06-10T09:30:09.013Z,4.50
2019-06-10T09:32:35.213Z,4.50
2019-06-10T09:35:03.440Z,4.77
2019-06-10T09:37:29.488Z,4.40
2019-06-10T09:39:59.477Z,4.73
2019-06-10T09:42:23.983Z,4.50
2019-06-10T09:44:55.316Z,4.57
2019-06-10T09:47:22.637Z,5.03
2019-06-10T09:49:51.431Z,5.07
2019-06-10T09:52:17.987Z,5.00
2019-06-10T09:54:47.944Z,4.63
2019-06-10T09:57:12.762Z,5.47
2019-06-10T09:59:39.023Z,4.50
2019-06-10T10:02:07.146Z,4.80
2019-06-10T10:04:37.507Z,4.70
2019-06-10T10:07:03.918Z,4.23
2019-06-10T10:09:33.806Z,4.33
2019-06-10T10:11:58.816Z,4.20
2019-06-10T10:14:24.968Z,4.40
2019-06-10T10:16:58.666Z,4.20
2019-06-10T10:19:19.340Z,5.03
2019-06-10T10:21:49.456Z,5.03
2019-06-10T10:24:15.115Z,4.43
2019-06-10T10:26:43.348Z,5.00
2019-06-10T10:29:09.713Z,5.50
2019-06-10T10:31:35.966Z,5.07
2019-06-10T10:34:02.745Z,5.87
2019-06-10T10:36:29.032Z,5.40
2019-06-10T10:38:55.233Z,5.37
2019-06-10T10:41:23.444Z,6.03
2019-06-10T10:43:52.381Z,6.43
2019-06-10T10:46:17.599Z,5.80
2019-06-10T10:48:44.987Z,6.00
2019-06-10T10:51:13.170Z,5.90
2019-06-10T10:53:39.431Z,5.60
2019-06-10T10:56:05.594Z,6.10
2019-06-10T10:58:33.074Z,6.60
2019-06-10T11:00:59.572Z,6.27
2019-06-10T11:03:25.742Z,6.10
2019-06-10T11:05:57.839Z,5.90
2019-06-10T11:08:22.615Z,4.53
2019-06-10T11:10:49.880Z,4.43
2019-06-10T11:13:17.663Z,4.93
2019-06-10T11:15:45.664Z,5.67
2019-06-10T11:18:12.675Z,6.17
2019-06-10T11:20:39.213Z,5.07
2019-06-10T11:23:05.518Z,6.30
2019-06-10T11:25:33.205Z,5.47
2019-06-10T11:27:59.692Z,5.03
2019-06-10T11:30:28.606Z,5.97
2019-06-10T11:32:57.235Z,5.80
2019-06-10T11:35:22.975Z,5.97
2019-06-10T11:37:49.326Z,5.70
2019-06-10T11:40:15.580Z,5.67
2019-06-10T11:42:43.547Z,5.30
2019-06-10T11:45:11.631Z,5.10
2019-06-10T11:47:38.129Z,4.70
2019-06-10T11:50:06.627Z,5.20
2019-06-10T11:52:33.637Z,5.23
2019-06-10T11:55:11.655Z,4.90
2019-06-10T11:57:27.999Z,4.97
2019-06-10T11:59:55.971Z,6.07
2019-06-10T12:02:22.851Z,5.47
2019-06-10T12:04:50.456Z,5.43
2019-06-10T12:07:17.393Z,5.73
2019-06-10T12:09:43.559Z,4.43
2019-06-10T12:12:09.724Z,7.03
2019-06-10T12:14:35.941Z,6.80
2019-06-10T12:17:35.112Z,6.50
2019-06-10T12:19:33.513Z,6.87
2019-06-10T12:22:03.369Z,7.03
2019-06-10T12:24:26.422Z,6.17
2019-06-10T12:26:55.249Z,5.93
2019-06-10T12:29:22.562Z,6.30
2019-06-10T12:31:48.786Z,4.60
2019-06-10T12:34:14.964Z,4.77
2019-06-10T12:36:41.148Z,3.57
2019-06-10T12:39:10.921Z,4.33
2019-06-10T12:41:36.594Z,4.50
2019-06-10T12:44:24.373Z,3.70
2019-06-10T12:46:53.975Z,3.83
2019-06-10T12:49:18.736Z,3.87
2019-06-10T12:51:44.931Z,3.40
2019-06-10T12:54:13.148Z,3.90
2019-06-10T12:56:39.195Z,3.90
2019-06-10T12:59:09.606Z,3.90
2019-06-10T13:01:33.457Z,3.40
2019-06-10T13:04:02.300Z,3.73
2019-06-10T13:06:29.223Z,4.30
2019-06-10T13:08:56.331Z,4.20
2019-06-10T13:11:23.865Z,3.47
2019-06-10T13:13:50.067Z,4.60
2019-06-10T13:16:16.248Z,4.43
2019-06-10T13:18:42.379Z,5.53
2019-06-10T13:21:13.578Z,5.63
2019-06-10T13:23:36.671Z,5.27
2019-06-10T13:26:10.859Z,4.87
2019-06-10T13:28:32.937Z,4.70
2019-06-10T13:30:59.217Z,6.77
2019-06-10T13:33:25.432Z,10.37
2019-06-10T13:35:53.744Z,13.37
2019-06-10T13:38:19.712Z,12.43
2019-06-10T13:40:45.885Z,7.60
2019-06-10T13:43:13.031Z,5.87
2019-06-10T13:45:39.552Z,5.60
2019-06-10T13:48:08.444Z,5.80
2019-06-10T13:50:33.825Z,5.70
2019-06-10T13:53:01.136Z,4.77
2019-06-10T13:55:28.057Z,5.70
2019-06-10T13:57:54.264Z,5.27
2019-06-10T14:00:24.156Z,4.47
2019-06-10T14:02:52.263Z,5.13
2019-06-10T14:05:18.654Z,4.40
2019-06-10T14:07:44.951Z,4.70
2019-06-10T14:10:17.848Z,5.43
2019-06-10T14:12:39.651Z,5.00
2019-06-10T14:15:09.162Z,5.40
2019-06-10T14:17:34.667Z,5.27
2019-06-10T14:20:01.776Z,5.60
2019-06-10T14:22:28.137Z,5.73
2019-06-10T14:24:54.296Z,5.63
2019-06-10T14:27:21.585Z,5.20
2019-06-10T14:29:48.552Z,5.20
2019-06-10T14:32:15.820Z,5.53
2019-06-10T14:34:42.158Z,4.70
2019-06-10T14:37:09.765Z,4.77
2019-06-10T14:39:36.531Z,5.20
2019-06-10T14:42:03.823Z,5.10
2019-06-10T14:44:32.607Z,5.73
2019-06-10T14:46:59.772Z,6.63
2019-06-10T14:49:26.294Z,5.87
2019-06-10T14:51:53.818Z,6.73
2019-06-10T14:54:22.639Z,6.00
2019-06-10T14:56:53.606Z,5.20
2019-06-10T14:59:18.103Z,5.10
2019-06-10T15:01:44.558Z,3.80
2019-06-10T15:04:12.579Z,3.63
2019-06-10T15:06:38.821Z,3.90
2019-06-10T15:09:07.438Z,3.47
2019-06-10T15:11:33.858Z,3.67
2019-06-10T15:14:02.371Z,3.40
2019-06-10T15:16:28.159Z,4.30
2019-06-10T15:19:02.650Z,3.90
2019-06-10T15:21:23.219Z,5.03
2019-06-10T15:23:52.183Z,4.70
2019-06-10T15:26:17.814Z,5.07
2019-06-10T15:28:44.086Z,3.70
2019-06-10T15:31:12.965Z,4.87
2019-06-10T15:33:38.372Z,4.33
2019-06-10T15:36:04.532Z,3.27
2019-06-10T15:38:32.788Z,3.57
2019-06-10T15:40:58.981Z,3.73
2019-06-10T15:43:25.146Z,3.70
2019-06-10T15:45:52.823Z,4.20
2019-06-10T15:48:21.906Z,4.10
2019-06-10T15:50:47.577Z,3.90
2019-06-10T15:53:17.247Z,3.10
2019-06-10T15:56:08.881Z,3.10
2019-06-10T15:58:09.920Z,3.20
2019-06-10T16:00:36.077Z,2.83
2019-06-10T16:03:02.576Z,2.80
2019-06-10T16:05:29.136Z,3.27
2019-06-10T16:07:55.307Z,3.17
2019-06-10T16:10:26.587Z,3.30
2019-06-10T16:12:49.574Z,3.70
2019-06-10T16:15:16.616Z,3.93
2019-06-10T16:17:44.034Z,3.67
2019-06-10T16:20:12.660Z,3.10
2019-06-10T16:22:38.473Z,3.30
2019-06-10T16:25:05.671Z,4.20
2019-06-10T16:27:46.279Z,4.43
2019-06-10T16:30:02.590Z,5.30
2019-06-10T16:32:28.024Z,5.50
2019-06-10T16:34:54.161Z,5.60
2019-06-10T16:37:23.431Z,5.93
2019-06-10T16:39:48.597Z,5.50
2019-06-10T16:42:15.493Z,6.40
2019-06-10T16:44:42.367Z,5.57
2019-06-10T16:47:08.809Z,7.23
2019-06-10T16:49:34.958Z,5.90
2019-06-10T16:52:02.901Z,5.13
2019-06-10T16:54:29.957Z,6.43
2019-06-10T16:56:56.390Z,6.40
2019-06-10T16:59:24.612Z,8.43
2019-06-10T17:01:53.069Z,9.23
2019-06-10T17:04:19.282Z,9.83
2019-06-10T17:06:45.582Z,9.90
2019-06-10T17:09:13.458Z,10.23
2019-06-10T17:11:42.362Z,10.23
2019-06-10T17:14:07.910Z,8.27
2019-06-10T17:16:34.229Z,8.97
2019-06-10T17:19:02.436Z,10.03
2019-06-10T17:21:31.671Z,8.57
2019-06-10T17:23:56.578Z,10.33
2019-06-10T17:26:29.407Z,9.30
2019-06-10T17:28:52.147Z,8.43
2019-06-10T17:31:19.714Z,8.70
2019-06-10T17:33:46.661Z,8.70
2019-06-10T17:36:12.844Z,9.23
2019-06-10T17:38:39.044Z,9.57
2019-06-10T17:41:05.389Z,9.43
2019-06-10T17:43:34.045Z,8.73
2019-06-10T17:45:59.701Z,7.73
2019-06-10T17:48:27.364Z,8.40
2019-06-10T17:50:54.146Z,7.00
2019-06-10T17:53:20.361Z,7.50
2019-06-10T17:55:46.615Z,7.10
2019-06-10T17:58:13.196Z,5.57
2019-06-10T18:00:42.056Z,6.33
2019-06-10T18:03:07.582Z,5.07
2019-06-10T18:05:33.754Z,6.33
2019-06-10T18:08:02.179Z,4.90
2019-06-10T18:10:28.013Z,5.50
2019-06-10T18:12:54.268Z,4.70
2019-06-10T18:15:22.197Z,5.10
2019-06-10T18:17:48.562Z,4.37
2019-06-10T18:20:16.823Z,5.30
2019-06-10T18:22:43.048Z,4.77
2019-06-10T18:25:12.172Z,5.00
2019-06-10T18:27:37.968Z,4.67
2019-06-10T18:30:10.884Z,5.20
2019-06-10T18:32:36.989Z,5.37
2019-06-10T18:35:02.965Z,5.73
2019-06-10T18:37:30.404Z,5.23
2019-06-10T18:39:57.166Z,5.43
2019-06-10T18:42:23.648Z,5.30
2019-06-10T18:44:52.159Z,5.30
2019-06-10T18:47:18.065Z,4.33
2019-06-10T18:49:44.219Z,4.27
2019-06-10T18:52:12.529Z,4.90
2019-06-10T18:54:38.489Z,5.70
2019-06-10T18:57:04.647Z,7.47
2019-06-10T18:59:33.122Z,6.43
2019-06-10T19:01:58.961Z,7.67
2019-06-10T19:04:25.162Z,7.97
2019-06-10T19:06:52.762Z,7.53
2019-06-10T19:09:19.308Z,6.97
2019-06-10T19:11:45.468Z,7.23
2019-06-10T19:14:12.788Z,8.10
2019-06-10T19:16:40.158Z,8.93
2019-06-10T19:19:06.521Z,8.73
2019-06-10T19:21:32.743Z,10.03
2019-06-10T19:23:58.888Z,11.07
2019-06-10T19:26:25.047Z,9.73
2019-06-10T19:28:53.415Z,9.07
2019-06-10T19:31:19.339Z,8.23
2019-06-10T19:33:45.646Z,7.13
2019-06-10T19:36:12.662Z,6.87
2019-06-10T19:38:39.899Z,5.97
2019-06-10T19:41:06.308Z,5.83
2019-06-10T19:43:34.578Z,6.37
2019-06-10T19:46:04.294Z,5.67
2019-06-10T19:48:28.714Z,5.70
2019-06-10T19:50:54.910Z,4.97
2019-06-10T19:53:22.174Z,5.47
2019-06-10T19:55:48.566Z,5.47
2019-06-10T19:58:14.761Z,5.43
2019-06-10T20:00:41.607Z,5.57
2019-06-10T20:03:08.979Z,4.90
2019-06-10T20:05:36.203Z,4.93
2019-06-10T20:08:03.190Z,5.20
2019-06-10T20:10:29.611Z,6.27
2019-06-10T20:12:55.824Z,5.57
2019-06-10T20:15:23.804Z,7.13
2019-06-10T20:17:52.335Z,7.43
2019-06-10T20:20:18.176Z,8.03
2019-06-10T20:22:46.649Z,8.00
2019-06-10T20:25:12.599Z,8.80
2019-06-10T20:27:39.713Z,9.40
2019-06-10T20:30:23.531Z,9.03
2019-06-10T20:32:37.180Z,8.60
2019-06-10T20:35:06.649Z,10.33
2019-06-10T20:37:32.924Z,8.67
2019-06-10T20:39:59.077Z,9.83
2019-06-10T20:42:25.284Z,10.03
2019-06-10T20:44:51.512Z,9.80
2019-06-10T20:47:17.664Z,9.23
2019-06-10T20:49:45.862Z,8.83
2019-06-10T20:52:14.760Z,9.03
2019-06-10T20:54:42.955Z,8.97
2019-06-10T20:57:08.373Z,10.47
2019-06-10T20:59:34.550Z,9.23
2019-06-10T21:02:03.189Z,9.50
2019-06-10T21:04:29.514Z,9.17
2019-06-10T21:06:55.888Z,9.10
2019-06-10T21:09:24.164Z,7.53
2019-06-10T21:11:51.917Z,7.00
2019-06-10T21:14:18.414Z,6.70
2019-06-10T21:16:44.571Z,5.47
2019-06-10T21:19:10.758Z,7.10
2019-06-10T21:21:36.937Z,8.77
2019-06-10T21:24:03.111Z,8.47
2019-06-10T21:26:29.300Z,8.80
2019-06-10T21:28:55.499Z,8.00
2019-06-10T21:31:21.644Z,6.80
2019-06-10T21:33:49.527Z,7.70
2019-06-10T21:36:15.909Z,6.60
2019-06-10T21:38:44.921Z,6.23
2019-06-10T21:41:12.285Z,6.03
2019-06-10T21:43:41.288Z,6.00
2019-06-10T21:46:06.360Z,6.23
2019-06-10T21:48:32.555Z,5.90
2019-06-10T21:50:58.737Z,5.33
2019-06-10T21:53:24.920Z,5.40
2019-06-10T21:55:53.545Z,5.77
2019-06-10T21:58:19.193Z,5.80
2019-06-10T22:01:05.134Z,5.87
2019-06-10T22:03:17.429Z,5.57
2019-06-10T22:05:44.286Z,5.90
2019-06-10T22:08:12.519Z,5.03
2019-06-10T22:10:39.051Z,6.73
2019-06-10T22:13:05.203Z,7.97
2019-06-10T22:15:33.360Z,9.00
2019-06-10T22:18:01.997Z,8.30
2019-06-10T22:20:27.613Z,8.33
2019-06-10T22:22:56.270Z,8.70
2019-06-10T22:25:22.382Z,7.30
2019-06-10T22:27:49.951Z,7.67
2019-06-10T22:30:16.585Z,7.17
2019-06-10T22:32:43.051Z,6.73
2019-06-10T22:35:09.330Z,7.27
2019-06-10T22:37:35.488Z,8.37
2019-06-10T22:40:03.276Z,6.90
2019-06-10T22:42:29.837Z,8.00
2019-06-10T22:44:57.964Z,7.50
2019-06-10T22:47:24.141Z,8.83
2019-06-10T22:49:50.404Z,9.23
2019-06-10T22:52:16.560Z,9.20
2019-06-10T22:54:43.122Z,7.60
2019-06-10T22:57:09.538Z,8.87
2019-06-10T22:59:35.688Z,8.63
2019-06-10T23:02:03.079Z,8.83
2019-06-10T23:04:29.439Z,7.57
2019-06-10T23:06:56.688Z,7.27
2019-06-10T23:09:23.788Z,7.53
2019-06-10T23:11:51.103Z,8.40
2019-06-10T23:14:18.023Z,7.57
2019-06-10T23:16:44.232Z,7.87
2019-06-10T23:19:12.933Z,8.27
2019-06-10T23:21:38.470Z,8.90
2019-06-10T23:24:04.661Z,9.37
2019-06-10T23:26:33.004Z,10.07
2019-06-10T23:29:00.211Z,10.43
2019-06-10T23:31:26.605Z,10.07
2019-06-10T23:33:56.075Z,10.83
2019-06-10T23:36:23.351Z,11.93
2019-06-10T23:38:48.928Z,13.50
2019-06-10T23:41:15.087Z,14.00
2019-06-10T23:43:42.303Z,13.43
2019-06-10T23:46:08.668Z,11.60
2019-06-10T23:48:34.845Z,11.23
2019-06-10T23:51:03.464Z,10.60
2019-06-10T23:53:29.441Z,12.00
2019-06-10T23:55:56.191Z,13.33
2019-06-10T23:58:24.953Z,13.17
